sensor_id;sensor_type;location;lat;lon;timestamp;P1;durP1;ratioP1;P2;durP2;ratioP2
9254;SDS011;4663;49.120;9.730;2023-09-30T00:00:59;4.53;;;2.03;;
9254;SDS011;4663;49.120;9.730;2023-09-30T00:03:25;3.67;;;2.13;;
9254;SDS011;4663;49.120;9.730;2023-09-30T00:05:51;3.65;;;1.75;;
9254;SDS011;4663;49.120;9.730;2023-09-30T00:08:16;3.65;;;1.95;;
9254;SDS011;4663;49.120;9.730;2023-09-30T00:10:41;3.20;;;1.83;;
9254;SDS011;4663;49.120;9.730;2023-09-30T00:13:07;4.25;;;2.03;;
9254;SDS011;4663;49.120;9.730;2023-09-30T00:15:33;2.67;;;1.70;;
9254;SDS011;4663;49.120;9.730;2023-09-30T00:17:58;4.07;;;1.95;;
9254;SDS011;4663;49.120;9.730;2023-09-30T00:20:24;3.75;;;1.83;;
9254;SDS011;4663;49.120;9.730;2023-09-30T00:22:49;2.28;;;1.50;;
9254;SDS011;4663;49.120;9.730;2023-09-30T00:25:15;2.92;;;1.63;;
9254;SDS011;4663;49.120;9.730;2023-09-30T00:27:40;4.40;;;1.88;;
9254;SDS011;4663;49.120;9.730;2023-09-30T00:30:06;2.58;;;1.55;;
9254;SDS011;4663;49.120;9.730;2023-09-30T00:32:32;3.75;;;1.80;;
9254;SDS011;4663;49.120;9.730;2023-09-30T00:34:58;2.05;;;1.55;;
9254;SDS011;4663;49.120;9.730;2023-09-30T00:37:24;3.03;;;1.63;;
9254;SDS011;4663;49.120;9.730;2023-09-30T00:39:49;2.65;;;1.50;;
9254;SDS011;4663;49.120;9.730;2023-09-30T00:42:14;5.13;;;1.90;;
9254;SDS011;4663;49.120;9.730;2023-09-30T00:44:40;2.55;;;1.80;;
9254;SDS011;4663;49.120;9.730;2023-09-30T00:47:05;2.78;;;1.70;;
9254;SDS011;4663;49.120;9.730;2023-09-30T00:49:31;3.47;;;1.92;;
9254;SDS011;4663;49.120;9.730;2023-09-30T00:51:57;2.67;;;1.67;;
9254;SDS011;4663;49.120;9.730;2023-09-30T00:54:24;2.25;;;1.50;;
9254;SDS011;4663;49.120;9.730;2023-09-30T00:56:52;2.85;;;1.60;;
9254;SDS011;4663;49.120;9.730;2023-09-30T00:59:20;2.35;;;1.65;;
9254;SDS011;4663;49.120;9.730;2023-09-30T01:01:46;3.60;;;1.67;;
9254;SDS011;4663;49.120;9.730;2023-09-30T01:04:12;1.92;;;1.52;;
9254;SDS011;4663;49.120;9.730;2023-09-30T01:06:38;3.33;;;1.80;;
9254;SDS011;4663;49.120;9.730;2023-09-30T01:09:03;2.35;;;1.60;;
9254;SDS011;4663;49.120;9.730;2023-09-30T01:11:29;2.97;;;1.95;;
9254;SDS011;4663;49.120;9.730;2023-09-30T01:13:55;2.95;;;1.73;;
9254;SDS011;4663;49.120;9.730;2023-09-30T01:16:20;2.20;;;1.70;;
9254;SDS011;4663;49.120;9.730;2023-09-30T01:18:46;3.20;;;1.80;;
9254;SDS011;4663;49.120;9.730;2023-09-30T01:21:11;2.35;;;1.77;;
9254;SDS011;4663;49.120;9.730;2023-09-30T01:23:37;3.95;;;2.15;;
9254;SDS011;4663;49.120;9.730;2023-09-30T01:26:12;2.95;;;2.10;;
9254;SDS011;4663;49.120;9.730;2023-09-30T01:28:38;3.10;;;2.25;;
9254;SDS011;4663;49.120;9.730;2023-09-30T01:31:05;2.60;;;2.10;;
9254;SDS011;4663;49.120;9.730;2023-09-30T01:33:31;2.58;;;2.10;;
9254;SDS011;4663;49.120;9.730;2023-09-30T01:35:57;2.65;;;1.95;;
9254;SDS011;4663;49.120;9.730;2023-09-30T01:38:24;5.03;;;2.83;;
9254;SDS011;4663;49.120;9.730;2023-09-30T01:40:50;2.83;;;2.30;;
9254;SDS011;4663;49.120;9.730;2023-09-30T01:43:15;2.95;;;2.40;;
9254;SDS011;4663;49.120;9.730;2023-09-30T01:45:41;3.28;;;2.75;;
9254;SDS011;4663;49.120;9.730;2023-09-30T01:48:07;4.07;;;2.30;;
9254;SDS011;4663;49.120;9.730;2023-09-30T01:50:36;4.60;;;2.35;;
9254;SDS011;4663;49.120;9.730;2023-09-30T01:53:04;3.83;;;2.50;;
9254;SDS011;4663;49.120;9.730;2023-09-30T01:55:34;2.70;;;1.98;;
9254;SDS011;4663;49.120;9.730;2023-09-30T01:58:00;3.85;;;2.67;;
9254;SDS011;4663;49.120;9.730;2023-09-30T02:00:25;3.20;;;2.75;;
9254;SDS011;4663;49.120;9.730;2023-09-30T02:02:53;2.55;;;2.35;;
9254;SDS011;4663;49.120;9.730;2023-09-30T02:05:19;3.53;;;2.38;;
9254;SDS011;4663;49.120;9.730;2023-09-30T02:07:44;2.75;;;2.25;;
9254;SDS011;4663;49.120;9.730;2023-09-30T02:10:10;3.30;;;2.30;;
9254;SDS011;4663;49.120;9.730;2023-09-30T02:12:35;3.13;;;2.38;;
9254;SDS011;4663;49.120;9.730;2023-09-30T02:15:02;2.67;;;2.13;;
9254;SDS011;4663;49.120;9.730;2023-09-30T02:17:29;2.50;;;2.30;;
9254;SDS011;4663;49.120;9.730;2023-09-30T02:19:54;2.67;;;2.40;;
9254;SDS011;4663;49.120;9.730;2023-09-30T02:22:20;2.85;;;2.55;;
9254;SDS011;4663;49.120;9.730;2023-09-30T02:24:45;4.20;;;2.65;;
9254;SDS011;4663;49.120;9.730;2023-09-30T02:27:10;3.92;;;2.50;;
9254;SDS011;4663;49.120;9.730;2023-09-30T02:29:36;3.35;;;2.45;;
9254;SDS011;4663;49.120;9.730;2023-09-30T02:32:01;3.10;;;2.75;;
9254;SDS011;4663;49.120;9.730;2023-09-30T02:34:27;4.07;;;2.08;;
9254;SDS011;4663;49.120;9.730;2023-09-30T02:36:55;3.80;;;2.67;;
9254;SDS011;4663;49.120;9.730;2023-09-30T02:39:20;3.17;;;2.50;;
9254;SDS011;4663;49.120;9.730;2023-09-30T02:41:46;2.90;;;2.42;;
9254;SDS011;4663;49.120;9.730;2023-09-30T02:44:11;2.83;;;2.30;;
9254;SDS011;4663;49.120;9.730;2023-09-30T02:46:37;2.65;;;2.30;;
9254;SDS011;4663;49.120;9.730;2023-09-30T02:49:03;3.08;;;2.40;;
9254;SDS011;4663;49.120;9.730;2023-09-30T02:51:28;3.03;;;2.53;;
9254;SDS011;4663;49.120;9.730;2023-09-30T02:53:55;3.38;;;2.92;;
9254;SDS011;4663;49.120;9.730;2023-09-30T02:56:20;4.03;;;2.60;;
9254;SDS011;4663;49.120;9.730;2023-09-30T02:58:49;3.20;;;2.58;;
9254;SDS011;4663;49.120;9.730;2023-09-30T03:01:16;2.85;;;2.50;;
9254;SDS011;4663;49.120;9.730;2023-09-30T03:03:42;4.07;;;2.83;;
9254;SDS011;4663;49.120;9.730;2023-09-30T03:06:09;5.22;;;2.38;;
9254;SDS011;4663;49.120;9.730;2023-09-30T03:08:35;3.28;;;2.72;;
9254;SDS011;4663;49.120;9.730;2023-09-30T03:11:01;5.35;;;2.83;;
9254;SDS011;4663;49.120;9.730;2023-09-30T03:13:27;4.13;;;2.60;;
9254;SDS011;4663;49.120;9.730;2023-09-30T03:15:52;4.20;;;2.80;;
9254;SDS011;4663;49.120;9.730;2023-09-30T03:18:18;2.58;;;2.35;;
9254;SDS011;4663;49.120;9.730;2023-09-30T03:20:47;4.40;;;2.90;;
9254;SDS011;4663;49.120;9.730;2023-09-30T03:23:15;3.03;;;2.72;;
9254;SDS011;4663;49.120;9.730;2023-09-30T03:25:40;4.18;;;2.92;;
9254;SDS011;4663;49.120;9.730;2023-09-30T03:28:07;4.68;;;2.40;;
9254;SDS011;4663;49.120;9.730;2023-09-30T03:30:32;3.97;;;2.60;;
9254;SDS011;4663;49.120;9.730;2023-09-30T03:32:58;3.30;;;2.65;;
9254;SDS011;4663;49.120;9.730;2023-09-30T03:35:23;3.10;;;2.65;;
9254;SDS011;4663;49.120;9.730;2023-09-30T03:37:49;3.45;;;2.75;;
9254;SDS011;4663;49.120;9.730;2023-09-30T03:40:15;5.22;;;3.28;;
9254;SDS011;4663;49.120;9.730;2023-09-30T03:42:44;4.78;;;2.92;;
9254;SDS011;4663;49.120;9.730;2023-09-30T03:45:11;3.92;;;2.90;;
9254;SDS011;4663;49.120;9.730;2023-09-30T03:47:39;3.97;;;2.55;;
9254;SDS011;4663;49.120;9.730;2023-09-30T03:50:06;3.67;;;2.75;;
9254;SDS011;4663;49.120;9.730;2023-09-30T03:52:38;4.03;;;2.88;;
9254;SDS011;4663;49.120;9.730;2023-09-30T03:55:04;3.65;;;2.83;;
9254;SDS011;4663;49.120;9.730;2023-09-30T03:57:33;4.97;;;3.03;;
9254;SDS011;4663;49.120;9.730;2023-09-30T03:59:59;5.85;;;3.22;;
9254;SDS011;4663;49.120;9.730;2023-09-30T04:02:26;4.05;;;3.03;;
9254;SDS011;4663;49.120;9.730;2023-09-30T04:04:51;2.78;;;2.47;;
9254;SDS011;4663;49.120;9.730;2023-09-30T04:07:19;5.13;;;2.90;;
9254;SDS011;4663;49.120;9.730;2023-09-30T04:09:46;5.72;;;3.03;;
9254;SDS011;4663;49.120;9.730;2023-09-30T04:12:11;3.53;;;2.88;;
9254;SDS011;4663;49.120;9.730;2023-09-30T04:14:37;3.72;;;2.85;;
9254;SDS011;4663;49.120;9.730;2023-09-30T04:17:02;4.50;;;2.95;;
9254;SDS011;4663;49.120;9.730;2023-09-30T04:19:29;6.13;;;3.33;;
9254;SDS011;4663;49.120;9.730;2023-09-30T04:21:55;3.85;;;2.90;;
9254;SDS011;4663;49.120;9.730;2023-09-30T04:24:21;5.45;;;3.17;;
9254;SDS011;4663;49.120;9.730;2023-09-30T04:26:46;6.65;;;3.60;;
9254;SDS011;4663;49.120;9.730;2023-09-30T04:29:13;6.38;;;3.15;;
9254;SDS011;4663;49.120;9.730;2023-09-30T04:31:39;5.65;;;2.60;;
9254;SDS011;4663;49.120;9.730;2023-09-30T04:34:06;3.25;;;2.60;;
9254;SDS011;4663;49.120;9.730;2023-09-30T04:36:32;4.18;;;2.97;;
9254;SDS011;4663;49.120;9.730;2023-09-30T04:39:00;4.65;;;3.22;;
9254;SDS011;4663;49.120;9.730;2023-09-30T04:41:26;4.03;;;3.25;;
9254;SDS011;4663;49.120;9.730;2023-09-30T04:43:51;5.05;;;3.10;;
9254;SDS011;4663;49.120;9.730;2023-09-30T04:46:17;4.80;;;3.10;;
9254;SDS011;4663;49.120;9.730;2023-09-30T04:48:45;6.28;;;3.47;;
9254;SDS011;4663;49.120;9.730;2023-09-30T04:51:13;6.55;;;3.05;;
9254;SDS011;4663;49.120;9.730;2023-09-30T04:53:42;3.80;;;3.05;;
9254;SDS011;4663;49.120;9.730;2023-09-30T04:56:08;6.10;;;3.70;;
9254;SDS011;4663;49.120;9.730;2023-09-30T04:58:33;8.50;;;3.45;;
9254;SDS011;4663;49.120;9.730;2023-09-30T05:00:59;6.78;;;3.83;;
9254;SDS011;4663;49.120;9.730;2023-09-30T05:03:24;4.78;;;3.20;;
9254;SDS011;4663;49.120;9.730;2023-09-30T05:05:51;6.63;;;3.10;;
9254;SDS011;4663;49.120;9.730;2023-09-30T05:08:23;5.80;;;3.08;;
9254;SDS011;4663;49.120;9.730;2023-09-30T05:10:49;4.43;;;3.03;;
9254;SDS011;4663;49.120;9.730;2023-09-30T05:13:15;4.95;;;3.60;;
9254;SDS011;4663;49.120;9.730;2023-09-30T05:15:40;4.15;;;2.90;;
9254;SDS011;4663;49.120;9.730;2023-09-30T05:18:06;6.07;;;3.53;;
9254;SDS011;4663;49.120;9.730;2023-09-30T05:20:34;6.90;;;3.67;;
9254;SDS011;4663;49.120;9.730;2023-09-30T05:23:01;5.85;;;3.58;;
9254;SDS011;4663;49.120;9.730;2023-09-30T05:25:27;4.85;;;3.95;;
9254;SDS011;4663;49.120;9.730;2023-09-30T05:27:53;8.18;;;4.10;;
9254;SDS011;4663;49.120;9.730;2023-09-30T05:30:19;5.75;;;4.03;;
9254;SDS011;4663;49.120;9.730;2023-09-30T05:32:45;5.47;;;4.18;;
9254;SDS011;4663;49.120;9.730;2023-09-30T05:35:12;6.20;;;4.05;;
9254;SDS011;4663;49.120;9.730;2023-09-30T05:37:40;6.25;;;4.38;;
9254;SDS011;4663;49.120;9.730;2023-09-30T05:40:12;7.38;;;4.25;;
9254;SDS011;4663;49.120;9.730;2023-09-30T05:42:47;8.18;;;3.97;;
9254;SDS011;4663;49.120;9.730;2023-09-30T05:45:14;7.65;;;4.20;;
9254;SDS011;4663;49.120;9.730;2023-09-30T05:47:40;7.25;;;4.20;;
9254;SDS011;4663;49.120;9.730;2023-09-30T05:50:07;5.72;;;4.18;;
9254;SDS011;4663;49.120;9.730;2023-09-30T05:52:34;5.15;;;3.63;;
9254;SDS011;4663;49.120;9.730;2023-09-30T05:54:59;8.05;;;3.92;;
9254;SDS011;4663;49.120;9.730;2023-09-30T05:57:27;5.22;;;3.35;;
9254;SDS011;4663;49.120;9.730;2023-09-30T05:59:53;5.85;;;3.47;;
9254;SDS011;4663;49.120;9.730;2023-09-30T06:02:19;5.65;;;3.72;;
9254;SDS011;4663;49.120;9.730;2023-09-30T06:04:44;4.78;;;3.33;;
9254;SDS011;4663;49.120;9.730;2023-09-30T06:07:11;6.85;;;3.28;;
9254;SDS011;4663;49.120;9.730;2023-09-30T06:09:37;5.43;;;3.72;;
9254;SDS011;4663;49.120;9.730;2023-09-30T06:12:02;4.55;;;3.60;;
9254;SDS011;4663;49.120;9.730;2023-09-30T06:14:31;6.55;;;3.75;;
9254;SDS011;4663;49.120;9.730;2023-09-30T06:16:57;5.43;;;3.55;;
9254;SDS011;4663;49.120;9.730;2023-09-30T06:19:22;4.00;;;3.58;;
9254;SDS011;4663;49.120;9.730;2023-09-30T06:21:48;8.43;;;4.00;;
9254;SDS011;4663;49.120;9.730;2023-09-30T06:24:15;4.55;;;3.30;;
9254;SDS011;4663;49.120;9.730;2023-09-30T06:26:40;5.72;;;3.78;;
9254;SDS011;4663;49.120;9.730;2023-09-30T06:29:06;5.40;;;3.90;;
9254;SDS011;4663;49.120;9.730;2023-09-30T06:31:32;7.05;;;3.88;;
9254;SDS011;4663;49.120;9.730;2023-09-30T06:33:58;6.15;;;3.85;;
9254;SDS011;4663;49.120;9.730;2023-09-30T06:36:25;7.10;;;4.20;;
9254;SDS011;4663;49.120;9.730;2023-09-30T06:38:51;5.32;;;3.78;;
9254;SDS011;4663;49.120;9.730;2023-09-30T06:41:17;7.82;;;3.78;;
9254;SDS011;4663;49.120;9.730;2023-09-30T06:43:43;6.10;;;4.22;;
9254;SDS011;4663;49.120;9.730;2023-09-30T06:46:09;4.50;;;3.75;;
9254;SDS011;4663;49.120;9.730;2023-09-30T06:48:35;6.85;;;3.97;;
9254;SDS011;4663;49.120;9.730;2023-09-30T06:51:01;7.55;;;4.63;;
9254;SDS011;4663;49.120;9.730;2023-09-30T06:53:27;6.22;;;4.60;;
9254;SDS011;4663;49.120;9.730;2023-09-30T06:55:52;6.60;;;4.63;;
9254;SDS011;4663;49.120;9.730;2023-09-30T06:58:18;6.32;;;4.72;;
9254;SDS011;4663;49.120;9.730;2023-09-30T07:00:47;5.50;;;4.18;;
9254;SDS011;4663;49.120;9.730;2023-09-30T07:03:14;4.35;;;3.80;;
9254;SDS011;4663;49.120;9.730;2023-09-30T07:05:40;4.55;;;4.05;;
9254;SDS011;4663;49.120;9.730;2023-09-30T07:08:06;6.00;;;4.35;;
9254;SDS011;4663;49.120;9.730;2023-09-30T07:10:32;7.03;;;4.65;;
9254;SDS011;4663;49.120;9.730;2023-09-30T07:12:57;5.18;;;4.47;;
9254;SDS011;4663;49.120;9.730;2023-09-30T07:15:23;5.95;;;4.80;;
9254;SDS011;4663;49.120;9.730;2023-09-30T07:17:48;6.85;;;4.35;;
9254;SDS011;4663;49.120;9.730;2023-09-30T07:20:14;6.22;;;4.13;;
9254;SDS011;4663;49.120;9.730;2023-09-30T07:22:40;7.03;;;4.60;;
9254;SDS011;4663;49.120;9.730;2023-09-30T07:25:06;7.03;;;4.35;;
9254;SDS011;4663;49.120;9.730;2023-09-30T07:27:32;4.53;;;4.05;;
9254;SDS011;4663;49.120;9.730;2023-09-30T07:29:57;7.38;;;4.40;;
9254;SDS011;4663;49.120;9.730;2023-09-30T07:32:22;6.57;;;4.32;;
9254;SDS011;4663;49.120;9.730;2023-09-30T07:34:49;6.38;;;4.03;;
9254;SDS011;4663;49.120;9.730;2023-09-30T07:37:14;5.90;;;4.40;;
9254;SDS011;4663;49.120;9.730;2023-09-30T07:39:42;6.45;;;4.72;;
9254;SDS011;4663;49.120;9.730;2023-09-30T07:42:08;5.63;;;4.18;;
9254;SDS011;4663;49.120;9.730;2023-09-30T07:44:34;5.40;;;3.95;;
9254;SDS011;4663;49.120;9.730;2023-09-30T07:47:02;6.93;;;4.57;;
9254;SDS011;4663;49.120;9.730;2023-09-30T07:49:28;7.38;;;4.55;;
9254;SDS011;4663;49.120;9.730;2023-09-30T07:51:54;8.90;;;5.03;;
9254;SDS011;4663;49.120;9.730;2023-09-30T07:54:20;5.25;;;4.30;;
9254;SDS011;4663;49.120;9.730;2023-09-30T07:56:45;7.80;;;4.90;;
9254;SDS011;4663;49.120;9.730;2023-09-30T07:59:10;6.70;;;4.28;;
9254;SDS011;4663;49.120;9.730;2023-09-30T08:01:36;4.88;;;4.13;;
9254;SDS011;4663;49.120;9.730;2023-09-30T08:04:02;6.55;;;4.28;;
9254;SDS011;4663;49.120;9.730;2023-09-30T08:06:28;10.65;;;4.90;;
9254;SDS011;4663;49.120;9.730;2023-09-30T08:08:53;5.80;;;4.70;;
9254;SDS011;4663;49.120;9.730;2023-09-30T08:11:20;6.93;;;4.65;;
9254;SDS011;4663;49.120;9.730;2023-09-30T08:13:46;6.45;;;4.82;;
9254;SDS011;4663;49.120;9.730;2023-09-30T08:16:11;8.38;;;5.20;;
9254;SDS011;4663;49.120;9.730;2023-09-30T08:18:38;8.80;;;4.55;;
9254;SDS011;4663;49.120;9.730;2023-09-30T08:21:03;7.60;;;4.68;;
9254;SDS011;4663;49.120;9.730;2023-09-30T08:23:30;6.45;;;4.13;;
9254;SDS011;4663;49.120;9.730;2023-09-30T08:25:59;7.57;;;4.78;;
9254;SDS011;4663;49.120;9.730;2023-09-30T08:28:24;4.80;;;3.75;;
9254;SDS011;4663;49.120;9.730;2023-09-30T08:30:50;6.68;;;4.53;;
9254;SDS011;4663;49.120;9.730;2023-09-30T08:33:19;6.25;;;4.25;;
9254;SDS011;4663;49.120;9.730;2023-09-30T08:35:44;6.82;;;4.30;;
9254;SDS011;4663;49.120;9.730;2023-09-30T08:38:10;6.45;;;4.90;;
9254;SDS011;4663;49.120;9.730;2023-09-30T08:40:35;5.03;;;3.45;;
9254;SDS011;4663;49.120;9.730;2023-09-30T08:43:01;5.00;;;3.60;;
9254;SDS011;4663;49.120;9.730;2023-09-30T08:45:29;7.88;;;4.13;;
9254;SDS011;4663;49.120;9.730;2023-09-30T08:47:58;8.90;;;4.45;;
9254;SDS011;4663;49.120;9.730;2023-09-30T08:50:29;6.93;;;3.83;;
9254;SDS011;4663;49.120;9.730;2023-09-30T08:52:56;5.28;;;3.47;;
9254;SDS011;4663;49.120;9.730;2023-09-30T08:55:21;6.75;;;3.88;;
9254;SDS011;4663;49.120;9.730;2023-09-30T08:57:49;4.45;;;3.30;;
9254;SDS011;4663;49.120;9.730;2023-09-30T09:00:15;5.57;;;3.50;;
9254;SDS011;4663;49.120;9.730;2023-09-30T09:02:41;6.43;;;3.65;;
9254;SDS011;4663;49.120;9.730;2023-09-30T09:05:07;7.85;;;3.97;;
9254;SDS011;4663;49.120;9.730;2023-09-30T09:07:34;6.15;;;3.60;;
9254;SDS011;4663;49.120;9.730;2023-09-30T09:10:03;5.55;;;3.92;;
9254;SDS011;4663;49.120;9.730;2023-09-30T09:12:34;5.38;;;3.03;;
9254;SDS011;4663;49.120;9.730;2023-09-30T09:15:04;8.57;;;4.28;;
9254;SDS011;4663;49.120;9.730;2023-09-30T09:17:44;6.32;;;3.38;;
9254;SDS011;4663;49.120;9.730;2023-09-30T09:20:17;6.43;;;3.30;;
9254;SDS011;4663;49.120;9.730;2023-09-30T09:22:47;6.75;;;3.42;;
9254;SDS011;4663;49.120;9.730;2023-09-30T09:25:16;6.35;;;3.63;;
9254;SDS011;4663;49.120;9.730;2023-09-30T09:27:41;7.00;;;3.33;;
9254;SDS011;4663;49.120;9.730;2023-09-30T09:30:40;4.30;;;3.13;;
9254;SDS011;4663;49.120;9.730;2023-09-30T09:33:04;5.20;;;3.60;;
9254;SDS011;4663;49.120;9.730;2023-09-30T09:35:30;5.63;;;3.40;;
9254;SDS011;4663;49.120;9.730;2023-09-30T09:40:28;4.32;;;3.30;;
9254;SDS011;4663;49.120;9.730;2023-09-30T09:42:56;4.78;;;3.30;;
9254;SDS011;4663;49.120;9.730;2023-09-30T09:45:22;4.82;;;3.25;;
9254;SDS011;4663;49.120;9.730;2023-09-30T09:47:50;4.68;;;3.30;;
9254;SDS011;4663;49.120;9.730;2023-09-30T09:50:17;4.20;;;3.38;;
9254;SDS011;4663;49.120;9.730;2023-09-30T09:52:53;3.25;;;2.80;;
9254;SDS011;4663;49.120;9.730;2023-09-30T09:55:23;6.50;;;3.60;;
9254;SDS011;4663;49.120;9.730;2023-09-30T09:57:50;7.13;;;3.58;;
9254;SDS011;4663;49.120;9.730;2023-09-30T10:00:17;4.93;;;3.33;;
9254;SDS011;4663;49.120;9.730;2023-09-30T10:02:44;5.32;;;3.63;;
9254;SDS011;4663;49.120;9.730;2023-09-30T10:05:14;5.10;;;3.45;;
9254;SDS011;4663;49.120;9.730;2023-09-30T10:10:18;5.78;;;3.78;;
9254;SDS011;4663;49.120;9.730;2023-09-30T10:12:45;6.00;;;3.40;;
9254;SDS011;4663;49.120;9.730;2023-09-30T10:20:46;5.90;;;3.17;;
9254;SDS011;4663;49.120;9.730;2023-09-30T10:23:20;4.38;;;3.53;;
9254;SDS011;4663;49.120;9.730;2023-09-30T10:25:47;4.43;;;2.83;;
9254;SDS011;4663;49.120;9.730;2023-09-30T10:36:31;3.40;;;2.53;;
9254;SDS011;4663;49.120;9.730;2023-09-30T10:39:00;3.47;;;2.53;;
9254;SDS011;4663;49.120;9.730;2023-09-30T10:46:47;5.43;;;2.95;;
9254;SDS011;4663;49.120;9.730;2023-09-30T10:51:48;4.30;;;2.95;;
9254;SDS011;4663;49.120;9.730;2023-09-30T10:54:16;5.45;;;3.00;;
9254;SDS011;4663;49.120;9.730;2023-09-30T10:56:48;4.63;;;3.03;;
9254;SDS011;4663;49.120;9.730;2023-09-30T10:59:20;4.57;;;3.40;;
9254;SDS011;4663;49.120;9.730;2023-09-30T11:01:47;4.93;;;3.05;;
9254;SDS011;4663;49.120;9.730;2023-09-30T11:04:13;4.80;;;3.25;;
9254;SDS011;4663;49.120;9.730;2023-09-30T11:06:40;6.55;;;3.72;;
9254;SDS011;4663;49.120;9.730;2023-09-30T11:09:07;6.10;;;2.75;;
9254;SDS011;4663;49.120;9.730;2023-09-30T11:16:53;5.18;;;3.10;;
9254;SDS011;4663;49.120;9.730;2023-09-30T11:19:20;5.80;;;3.00;;
9254;SDS011;4663;49.120;9.730;2023-09-30T11:21:50;6.10;;;3.45;;
9254;SDS011;4663;49.120;9.730;2023-09-30T11:24:23;6.60;;;3.55;;
9254;SDS011;4663;49.120;9.730;2023-09-30T11:26:53;6.20;;;3.42;;
9254;SDS011;4663;49.120;9.730;2023-09-30T11:29:18;4.25;;;3.10;;
9254;SDS011;4663;49.120;9.730;2023-09-30T11:31:46;5.03;;;3.05;;
9254;SDS011;4663;49.120;9.730;2023-09-30T11:34:14;6.82;;;3.78;;
9254;SDS011;4663;49.120;9.730;2023-09-30T11:36:41;4.30;;;2.97;;
9254;SDS011;4663;49.120;9.730;2023-09-30T11:39:21;7.03;;;3.88;;
9254;SDS011;4663;49.120;9.730;2023-09-30T11:41:48;4.95;;;3.38;;
9254;SDS011;4663;49.120;9.730;2023-09-30T11:44:13;7.65;;;3.45;;
9254;SDS011;4663;49.120;9.730;2023-09-30T11:46:53;6.07;;;3.50;;
9254;SDS011;4663;49.120;9.730;2023-09-30T11:49:54;5.95;;;3.22;;
9254;SDS011;4663;49.120;9.730;2023-09-30T11:52:25;5.57;;;3.55;;
9254;SDS011;4663;49.120;9.730;2023-09-30T11:54:51;4.00;;;2.88;;
9254;SDS011;4663;49.120;9.730;2023-09-30T11:57:17;5.15;;;3.17;;
9254;SDS011;4663;49.120;9.730;2023-09-30T11:59:44;5.55;;;2.88;;
9254;SDS011;4663;49.120;9.730;2023-09-30T12:02:11;4.80;;;3.08;;
9254;SDS011;4663;49.120;9.730;2023-09-30T12:04:37;6.38;;;3.63;;
9254;SDS011;4663;49.120;9.730;2023-09-30T12:07:03;6.20;;;3.65;;
9254;SDS011;4663;49.120;9.730;2023-09-30T12:09:29;5.60;;;3.47;;
9254;SDS011;4663;49.120;9.730;2023-09-30T12:11:56;5.65;;;3.15;;
9254;SDS011;4663;49.120;9.730;2023-09-30T12:14:22;5.80;;;3.20;;
9254;SDS011;4663;49.120;9.730;2023-09-30T12:16:49;5.15;;;3.30;;
9254;SDS011;4663;49.120;9.730;2023-09-30T12:19:15;5.18;;;3.05;;
9254;SDS011;4663;49.120;9.730;2023-09-30T12:21:41;6.07;;;3.70;;
9254;SDS011;4663;49.120;9.730;2023-09-30T12:24:07;4.82;;;3.13;;
9254;SDS011;4663;49.120;9.730;2023-09-30T12:26:34;9.65;;;4.18;;
9254;SDS011;4663;49.120;9.730;2023-09-30T12:29:01;5.82;;;3.33;;
9254;SDS011;4663;49.120;9.730;2023-09-30T12:31:26;6.47;;;3.45;;
9254;SDS011;4663;49.120;9.730;2023-09-30T12:33:51;6.97;;;3.53;;
9254;SDS011;4663;49.120;9.730;2023-09-30T12:36:18;7.60;;;3.42;;
9254;SDS011;4663;49.120;9.730;2023-09-30T12:38:44;5.60;;;3.50;;
9254;SDS011;4663;49.120;9.730;2023-09-30T12:41:09;5.63;;;3.20;;
9254;SDS011;4663;49.120;9.730;2023-09-30T12:43:35;7.57;;;3.90;;
9254;SDS011;4663;49.120;9.730;2023-09-30T12:46:01;5.38;;;3.58;;
9254;SDS011;4663;49.120;9.730;2023-09-30T12:48:27;5.57;;;3.50;;
9254;SDS011;4663;49.120;9.730;2023-09-30T12:50:52;6.28;;;3.92;;
9254;SDS011;4663;49.120;9.730;2023-09-30T12:53:17;5.15;;;3.67;;
9254;SDS011;4663;49.120;9.730;2023-09-30T12:55:43;6.10;;;3.72;;
9254;SDS011;4663;49.120;9.730;2023-09-30T12:58:08;6.50;;;4.22;;
9254;SDS011;4663;49.120;9.730;2023-09-30T13:00:34;7.22;;;3.90;;
9254;SDS011;4663;49.120;9.730;2023-09-30T13:03:01;7.05;;;4.05;;
9254;SDS011;4663;49.120;9.730;2023-09-30T13:05:27;7.18;;;4.07;;
9254;SDS011;4663;49.120;9.730;2023-09-30T13:07:56;7.70;;;4.07;;
9254;SDS011;4663;49.120;9.730;2023-09-30T13:10:22;5.80;;;4.05;;
9254;SDS011;4663;49.120;9.730;2023-09-30T13:12:48;6.60;;;4.38;;
9254;SDS011;4663;49.120;9.730;2023-09-30T13:15:18;8.25;;;4.47;;
9254;SDS011;4663;49.120;9.730;2023-09-30T13:17:44;6.75;;;4.20;;
9254;SDS011;4663;49.120;9.730;2023-09-30T13:20:10;6.68;;;3.88;;
9254;SDS011;4663;49.120;9.730;2023-09-30T13:22:37;6.78;;;4.10;;
9254;SDS011;4663;49.120;9.730;2023-09-30T13:25:03;7.10;;;3.95;;
9254;SDS011;4663;49.120;9.730;2023-09-30T13:27:30;5.88;;;3.80;;
9254;SDS011;4663;49.120;9.730;2023-09-30T13:29:56;6.35;;;3.92;;
9254;SDS011;4663;49.120;9.730;2023-09-30T13:32:23;6.93;;;3.97;;
9254;SDS011;4663;49.120;9.730;2023-09-30T13:34:50;8.52;;;4.70;;
9254;SDS011;4663;49.120;9.730;2023-09-30T13:37:16;7.35;;;4.22;;
9254;SDS011;4663;49.120;9.730;2023-09-30T13:39:41;7.65;;;4.47;;
9254;SDS011;4663;49.120;9.730;2023-09-30T13:42:06;6.70;;;4.22;;
9254;SDS011;4663;49.120;9.730;2023-09-30T13:44:32;6.35;;;4.00;;
9254;SDS011;4663;49.120;9.730;2023-09-30T13:46:58;6.63;;;4.28;;
9254;SDS011;4663;49.120;9.730;2023-09-30T13:49:23;6.63;;;4.30;;
9254;SDS011;4663;49.120;9.730;2023-09-30T13:51:48;9.35;;;4.78;;
9254;SDS011;4663;49.120;9.730;2023-09-30T13:54:14;7.00;;;4.30;;
9254;SDS011;4663;49.120;9.730;2023-09-30T13:56:40;7.03;;;4.28;;
9254;SDS011;4663;49.120;9.730;2023-09-30T13:59:05;7.22;;;3.75;;
9254;SDS011;4663;49.120;9.730;2023-09-30T14:01:30;7.03;;;4.43;;
9254;SDS011;4663;49.120;9.730;2023-09-30T14:03:56;7.20;;;4.22;;
9254;SDS011;4663;49.120;9.730;2023-09-30T14:06:22;10.00;;;4.53;;
9254;SDS011;4663;49.120;9.730;2023-09-30T14:08:48;7.88;;;4.63;;
9254;SDS011;4663;49.120;9.730;2023-09-30T14:11:14;6.47;;;4.40;;
9254;SDS011;4663;49.120;9.730;2023-09-30T14:13:39;7.53;;;4.32;;
9254;SDS011;4663;49.120;9.730;2023-09-30T14:16:05;6.57;;;3.97;;
9254;SDS011;4663;49.120;9.730;2023-09-30T14:18:31;7.55;;;4.07;;
9254;SDS011;4663;49.120;9.730;2023-09-30T14:20:58;6.47;;;3.95;;
9254;SDS011;4663;49.120;9.730;2023-09-30T14:23:23;7.57;;;4.20;;
9254;SDS011;4663;49.120;9.730;2023-09-30T14:25:49;7.35;;;4.32;;
9254;SDS011;4663;49.120;9.730;2023-09-30T14:28:14;6.68;;;4.13;;
9254;SDS011;4663;49.120;9.730;2023-09-30T14:30:40;8.90;;;4.25;;
9254;SDS011;4663;49.120;9.730;2023-09-30T14:33:06;7.35;;;4.18;;
9254;SDS011;4663;49.120;9.730;2023-09-30T14:35:34;6.20;;;4.20;;
9254;SDS011;4663;49.120;9.730;2023-09-30T14:37:59;7.40;;;4.28;;
9254;SDS011;4663;49.120;9.730;2023-09-30T14:40:25;6.50;;;4.50;;
9254;SDS011;4663;49.120;9.730;2023-09-30T14:42:51;7.78;;;4.28;;
9254;SDS011;4663;49.120;9.730;2023-09-30T14:45:16;8.50;;;4.32;;
9254;SDS011;4663;49.120;9.730;2023-09-30T14:47:41;6.78;;;4.15;;
9254;SDS011;4663;49.120;9.730;2023-09-30T14:50:07;8.57;;;4.40;;
9254;SDS011;4663;49.120;9.730;2023-09-30T14:52:34;6.60;;;4.38;;
9254;SDS011;4663;49.120;9.730;2023-09-30T14:54:59;8.13;;;4.30;;
9254;SDS011;4663;49.120;9.730;2023-09-30T14:57:25;8.48;;;4.32;;
9254;SDS011;4663;49.120;9.730;2023-09-30T14:59:50;7.07;;;4.07;;
9254;SDS011;4663;49.120;9.730;2023-09-30T15:02:16;8.27;;;4.47;;
9254;SDS011;4663;49.120;9.730;2023-09-30T15:04:41;6.53;;;4.22;;
9254;SDS011;4663;49.120;9.730;2023-09-30T15:07:07;6.93;;;4.18;;
9254;SDS011;4663;49.120;9.730;2023-09-30T15:09:32;9.15;;;4.35;;
9254;SDS011;4663;49.120;9.730;2023-09-30T15:11:57;8.07;;;4.32;;
9254;SDS011;4663;49.120;9.730;2023-09-30T15:14:23;8.30;;;4.20;;
9254;SDS011;4663;49.120;9.730;2023-09-30T15:16:49;8.88;;;4.20;;
9254;SDS011;4663;49.120;9.730;2023-09-30T15:19:14;8.23;;;4.55;;
9254;SDS011;4663;49.120;9.730;2023-09-30T15:21:40;6.80;;;4.18;;
9254;SDS011;4663;49.120;9.730;2023-09-30T15:24:06;6.80;;;4.50;;
9254;SDS011;4663;49.120;9.730;2023-09-30T15:26:32;8.55;;;4.22;;
9254;SDS011;4663;49.120;9.730;2023-09-30T15:28:57;6.45;;;3.88;;
9254;SDS011;4663;49.120;9.730;2023-09-30T15:31:29;8.00;;;4.47;;
9254;SDS011;4663;49.120;9.730;2023-09-30T15:33:58;6.82;;;4.38;;
9254;SDS011;4663;49.120;9.730;2023-09-30T15:36:24;7.07;;;4.32;;
9254;SDS011;4663;49.120;9.730;2023-09-30T15:38:50;9.15;;;4.63;;
9254;SDS011;4663;49.120;9.730;2023-09-30T15:41:16;7.70;;;4.60;;
9254;SDS011;4663;49.120;9.730;2023-09-30T15:43:48;7.43;;;4.55;;